Time;durP1;ratioP1;P1;durP2;ratioP2;P2;SDS_P1;SDS_P2;PMS_P1;PMS_P2;Temp;Humidity;BMP_temperature;BMP_pressure;BME280_temperature;BME280_humidity;BME280_pressure;Samples;Min_cycle;Max_cycle;Signal;HPM_P1;HPM_P2
2023/03/22 00:01:33;;;;;;;9.23;7.47;;;9.10;99.90;;;;;;5093795;28;20203;-65
2023/03/22 00:04:00;;;;;;;7.05;6.32;;;9.20;99.90;;;;;;5093367;28;20273;-65
2023/03/22 00:06:27;;;;;;;10.52;6.28;;;9.20;99.90;;;;;;5093335;28;20220;-64
2023/03/22 00:08:54;;;;;;;7.93;6.80;;;9.20;99.90;;;;;;5093586;28;20200;-64
2023/03/22 00:11:24;;;;;;;8.10;7.28;;;9.20;99.90;;;;;;5093876;28;20201;-65
2023/03/22 00:13:51;;;;;;;8.65;7.53;;;9.20;99.90;;;;;;5093961;28;20199;-64
2023/03/22 00:16:19;;;;;;;8.43;6.95;;;9.20;99.90;;;;;;5093729;28;20231;-65
2023/03/22 00:18:47;;;;;;;10.05;7.38;;;9.20;99.90;;;;;;5093066;28;20207;-65
2023/03/22 00:21:15;;;;;;;8.70;6.97;;;9.20;99.90;;;;;;5093212;28;20564;-66
2023/03/22 00:23:43;;;;;;;11.90;7.65;;;9.30;99.90;;;;;;5093295;28;20206;-64
2023/03/22 00:26:10;;;;;;;10.05;8.38;;;9.20;99.90;;;;;;5093559;28;20224;-65
2023/03/22 00:28:37;;;;;;;7.80;6.95;;;9.20;99.90;;;;;;5097372;28;20552;-65
2023/03/22 00:31:06;;;;;;;10.50;7.28;;;9.20;99.90;;;;;;5097760;28;20204;-65
2023/03/22 00:33:33;;;;;;;10.20;7.57;;;9.20;99.90;;;;;;5097685;28;20204;-65
2023/03/22 00:36:04;;;;;;;8.55;7.50;;;9.20;99.90;;;;;;5097039;28;20224;-65
2023/03/22 00:38:35;;;;;;;10.18;8.63;;;9.20;99.90;;;;;;5097621;28;20204;-65
2023/03/22 00:41:10;;;;;;;11.50;7.45;;;9.10;99.90;;;;;;5097569;28;20188;-63
2023/03/22 00:43:37;;;;;;;9.60;8.25;;;9.10;99.90;;;;;;5096922;28;20195;-64
2023/03/22 00:46:05;;;;;;;8.65;7.75;;;9.00;99.90;;;;;;5097515;28;20216;-66
2023/03/22 00:48:32;;;;;;;8.48;7.57;;;8.90;99.90;;;;;;5097173;28;20235;-64
2023/03/22 00:50:58;;;;;;;9.20;7.75;;;8.90;99.90;;;;;;5097241;28;20277;-65
2023/03/22 00:53:28;;;;;;;10.68;8.43;;;8.90;99.90;;;;;;5096952;28;20211;-64
2023/03/22 00:55:55;;;;;;;10.07;8.07;;;8.80;99.90;;;;;;5097347;28;20254;-65
2023/03/22 00:58:22;;;;;;;14.57;8.43;;;8.80;99.90;;;;;;5097129;28;20250;-65
2023/03/22 01:00:49;;;;;;;11.27;8.05;;;8.70;99.90;;;;;;5096539;28;20247;-66
2023/03/22 01:03:16;;;;;;;9.43;7.50;;;8.70;99.90;;;;;;5097467;28;20200;-65
2023/03/22 01:05:45;;;;;;;12.98;8.75;;;8.60;99.90;;;;;;5097259;28;20273;-65
2023/03/22 01:08:13;;;;;;;11.63;8.63;;;8.60;99.90;;;;;;5096710;28;20581;-65
2023/03/22 01:10:43;;;;;;;12.27;8.52;;;8.60;99.90;;;;;;5097124;28;20200;-64
2023/03/22 01:13:11;;;;;;;8.90;8.05;;;8.60;99.90;;;;;;5096956;28;20255;-64
2023/03/22 01:15:38;;;;;;;11.60;8.90;;;8.50;99.90;;;;;;5096779;28;20235;-65
2023/03/22 01:18:06;;;;;;;9.73;8.68;;;8.60;99.90;;;;;;5096578;28;20683;-64
2023/03/22 01:20:33;;;;;;;15.68;9.20;;;8.60;99.90;;;;;;5096640;28;20257;-64
2023/03/22 01:23:00;;;;;;;9.93;7.97;;;8.60;99.90;;;;;;5096462;28;20196;-65
2023/03/22 01:25:26;;;;;;;13.88;10.30;;;8.70;99.90;;;;;;5096013;28;20207;-65
2023/03/22 01:27:55;;;;;;;11.93;9.10;;;8.70;99.90;;;;;;5096172;28;20188;-64
2023/03/22 01:30:21;;;;;;;17.40;10.45;;;8.70;99.90;;;;;;5096560;28;20696;-63
2023/03/22 01:32:48;;;;;;;14.45;9.00;;;8.80;99.90;;;;;;5096316;28;20223;-64
2023/03/22 01:35:15;;;;;;;13.13;9.30;;;8.80;99.90;;;;;;5095938;28;20204;-65
2023/03/22 01:37:42;;;;;;;13.25;9.25;;;8.90;99.90;;;;;;5095829;28;20223;-65
2023/03/22 01:40:11;;;;;;;12.43;9.35;;;8.90;99.90;;;;;;5096415;28;20579;-65
2023/03/22 01:42:38;;;;;;;11.43;10.23;;;8.90;99.90;;;;;;5096418;28;20202;-65
2023/03/22 01:45:41;;;;;;;12.32;9.60;;;8.90;99.90;;;;;;5096152;28;20295;-64
2023/03/22 01:48:27;;;;;;;10.13;9.13;;;9.00;99.90;;;;;;5096186;28;20180;-65
2023/03/22 01:51:04;;;;;;;14.63;9.32;;;9.00;99.90;;;;;;5095987;28;20196;-65
2023/03/22 01:53:33;;;;;;;14.05;9.45;;;9.10;99.90;;;;;;5096921;28;20195;-66
2023/03/22 01:56:01;;;;;;;12.43;8.80;;;9.10;99.90;;;;;;5095987;28;20780;-64
2023/03/22 01:58:28;;;;;;;12.73;9.88;;;9.20;99.90;;;;;;5096073;28;20235;-65
2023/03/22 02:00:57;;;;;;;15.32;10.68;;;9.20;99.90;;;;;;5096324;28;20741;-65
2023/03/22 02:03:35;;;;;;;15.07;10.02;;;9.20;99.90;;;;;;5096045;28;20203;-65
2023/03/22 02:06:02;;;;;;;13.88;9.90;;;9.30;99.90;;;;;;5095802;28;20307;-65
2023/03/22 02:08:30;;;;;;;11.77;10.13;;;9.20;99.90;;;;;;5096052;28;20211;-65
2023/03/22 02:10:57;;;;;;;14.43;10.65;;;9.30;99.90;;;;;;5095831;28;20208;-65
2023/03/22 02:13:49;;;;;;;12.05;9.70;;;9.20;99.90;;;;;;5095629;28;20692;-65
2023/03/22 02:16:30;;;;;;;14.13;9.88;;;9.20;99.90;;;;;;5095184;28;20267;-65
2023/03/22 02:19:19;;;;;;;11.00;9.52;;;9.20;99.90;;;;;;5095325;28;20180;-64
2023/03/22 02:22:16;;;;;;;12.70;10.45;;;9.20;99.90;;;;;;5095029;28;20200;-65
2023/03/22 02:25:04;;;;;;;15.98;11.25;;;9.20;99.90;;;;;;5095124;28;20185;-65
2023/03/22 02:28:11;;;;;;;12.38;9.45;;;9.20;99.90;;;;;;5094650;28;20558;-65
2023/03/22 02:31:02;;;;;;;10.88;8.50;;;9.20;99.90;;;;;;5081320;28;20223;-66
2023/03/22 02:34:04;;;;;;;13.00;10.45;;;9.20;99.90;;;;;;5095021;28;20200;-65
2023/03/22 02:36:52;;;;;;;10.98;9.00;;;9.20;99.90;;;;;;5067301;28;20236;-65
2023/03/22 02:39:32;;;;;;;19.73;10.48;;;9.20;99.90;;;;;;5094471;28;20634;-65
2023/03/22 02:42:16;;;;;;;15.20;9.68;;;9.20;99.90;;;;;;5095164;28;20191;-65
2023/03/22 02:44:46;;;;;;;16.48;10.25;;;9.30;99.90;;;;;;5095181;28;20184;-65
2023/03/22 02:47:22;;;;;;;14.75;10.45;;;9.20;99.90;;;;;;5094635;28;20220;-65
2023/03/22 02:49:56;;;;;;;18.58;11.13;;;9.20;99.90;;;;;;5093664;28;20203;-65
2023/03/22 02:52:30;;;;;;;14.30;10.30;;;9.20;99.90;;;;;;5094464;28;20196;-65
2023/03/22 02:55:05;;;;;;;12.15;9.50;;;9.20;99.90;;;;;;5094606;28;20188;-65
2023/03/22 02:57:40;;;;;;;14.30;11.40;;;9.30;99.90;;;;;;5094494;28;20228;-65
2023/03/22 03:00:11;;;;;;;14.85;11.15;;;9.30;99.90;;;;;;5094558;28;20194;-65
2023/03/22 03:02:43;;;;;;;17.00;10.95;;;9.30;99.90;;;;;;5094272;28;20241;-66
2023/03/22 03:05:12;;;;;;;14.70;11.43;;;9.30;99.90;;;;;;5094413;28;20200;-65
2023/03/22 03:07:43;;;;;;;13.18;11.13;;;9.40;99.90;;;;;;5094647;28;20202;-65
2023/03/22 03:10:13;;;;;;;15.35;11.70;;;9.40;99.90;;;;;;5096197;28;20184;-65
2023/03/22 03:12:40;;;;;;;14.00;11.60;;;9.40;99.90;;;;;;5097597;28;20204;-64
2023/03/22 03:15:13;;;;;;;12.85;10.85;;;9.40;99.90;;;;;;5096431;28;20207;-66
2023/03/22 03:17:53;;;;;;;15.50;10.95;;;9.40;99.90;;;;;;5095176;28;20262;-65
2023/03/22 03:20:29;;;;;;;18.58;12.15;;;9.40;99.90;;;;;;5095346;28;20218;-65
2023/03/22 03:23:12;;;;;;;15.93;11.88;;;9.40;99.90;;;;;;5093826;28;20188;-65
2023/03/22 03:25:48;;;;;;;13.35;11.15;;;9.40;99.90;;;;;;5093675;28;20714;-66
2023/03/22 03:28:28;;;;;;;13.80;11.43;;;9.40;99.90;;;;;;5094149;28;20203;-66
2023/03/22 03:31:00;;;;;;;14.68;12.50;;;9.40;99.90;;;;;;5094138;28;20196;-65
2023/03/22 03:33:31;;;;;;;15.65;11.57;;;9.40;99.90;;;;;;5093936;28;20197;-65
2023/03/22 03:36:01;;;;;;;14.52;10.13;;;9.40;99.90;;;;;;5093764;28;20231;-65
2023/03/22 03:38:31;;;;;;;13.25;11.10;;;9.40;99.90;;;;;;5093806;28;20311;-65
2023/03/22 03:41:03;;;;;;;13.75;11.18;;;9.40;99.90;;;;;;5093812;28;20200;-66
2023/03/22 03:43:30;;;;;;;13.32;10.93;;;9.40;99.90;;;;;;5094064;28;20184;-65
2023/03/22 03:45:58;;;;;;;14.98;11.45;;;9.40;99.90;;;;;;5094393;28;20271;-66
2023/03/22 03:48:28;;;;;;;18.50;11.85;;;9.50;99.90;;;;;;5093668;28;20203;-64
2023/03/22 03:50:57;;;;;;;16.67;12.13;;;9.50;99.90;;;;;;5094028;28;20638;-65
2023/03/22 03:53:24;;;;;;;14.77;11.00;;;9.50;99.90;;;;;;5093258;28;20204;-65
2023/03/22 03:55:51;;;;;;;17.15;11.30;;;9.50;99.90;;;;;;5093021;28;20731;-65
2023/03/22 03:58:19;;;;;;;16.05;11.90;;;9.50;99.90;;;;;;5093445;28;20219;-65
2023/03/22 04:00:47;;;;;;;13.88;10.98;;;9.50;99.90;;;;;;5093349;28;20231;-65
2023/03/22 04:03:14;;;;;;;15.00;10.90;;;9.50;99.90;;;;;;5093320;28;20200;-64
2023/03/22 04:05:41;;;;;;;15.38;10.02;;;9.50;99.90;;;;;;5093360;28;20266;-64
2023/03/22 04:11:25;;;;;;;13.32;11.02;;;9.50;99.90;;;;;;5091736;28;20578;-65
2023/03/22 04:13:52;;;;;;;13.73;11.05;;;9.50;99.90;;;;;;5091773;28;20204;-65
2023/03/22 04:16:19;;;;;;;12.85;11.07;;;9.50;99.90;;;;;;5091806;28;20222;-65
2023/03/22 04:18:45;;;;;;;14.45;12.02;;;9.50;99.90;;;;;;5092942;28;20265;-65
2023/03/22 04:21:15;;;;;;;14.93;11.35;;;9.50;99.90;;;;;;5091832;28;20230;-64
2023/03/22 04:23:45;;;;;;;17.98;11.73;;;9.50;99.90;;;;;;5098214;22;20232;-63
2023/03/22 04:26:12;;;;;;;14.75;11.45;;;9.50;99.90;;;;;;5070123;28;20188;-64
2023/03/22 04:28:40;;;;;;;15.07;10.98;;;9.50;99.90;;;;;;5069598;28;20709;-63
2023/03/22 04:31:09;;;;;;;15.52;11.77;;;9.50;99.90;;;;;;5069696;28;20223;-65
2023/03/22 04:33:38;;;;;;;13.02;11.07;;;9.50;99.90;;;;;;5069943;28;20221;-63
2023/03/22 04:36:09;;;;;;;16.33;13.20;;;9.50;99.90;;;;;;5069822;28;20196;-63
2023/03/22 04:38:38;;;;;;;15.93;11.70;;;9.50;99.90;;;;;;5069679;28;20190;-63
2023/03/22 04:41:05;;;;;;;17.05;11.60;;;9.50;99.90;;;;;;5069608;28;20615;-64
2023/03/22 04:43:33;;;;;;;15.05;10.95;;;9.50;99.90;;;;;;5069465;28;20221;-63
2023/03/22 04:46:02;;;;;;;14.55;10.57;;;9.50;99.90;;;;;;5069272;28;20201;-63
2023/03/22 04:48:28;;;;;;;15.95;12.00;;;9.50;99.90;;;;;;5069387;28;20198;-64
2023/03/22 04:50:55;;;;;;;14.63;11.65;;;9.50;99.90;;;;;;5069055;28;20217;-64
2023/03/22 04:53:26;;;;;;;16.13;12.00;;;9.50;99.90;;;;;;5069409;28;20225;-64
2023/03/22 04:55:55;;;;;;;16.58;11.70;;;9.50;99.90;;;;;;5069425;28;20428;-64
2023/03/22 04:58:22;;;;;;;15.80;11.43;;;9.50;99.90;;;;;;5069364;28;20229;-65
2023/03/22 05:00:51;;;;;;;13.23;10.32;;;9.50;99.90;;;;;;5068916;28;20197;-64
2023/03/22 05:03:20;;;;;;;17.50;12.05;;;9.50;99.90;;;;;;5069235;28;20221;-64
2023/03/22 05:05:51;;;;;;;16.75;12.07;;;9.60;99.90;;;;;;5069381;28;20225;-64
2023/03/22 05:08:18;;;;;;;17.23;12.57;;;9.60;99.90;;;;;;5068842;28;20667;-64
2023/03/22 05:10:45;;;;;;;15.27;12.37;;;9.60;99.90;;;;;;5068622;28;20850;-64
2023/03/22 05:13:12;;;;;;;15.85;11.27;;;9.60;99.90;;;;;;5069058;28;20973;-64
2023/03/22 05:15:40;;;;;;;13.57;11.10;;;9.60;99.90;;;;;;5068825;28;20285;-65
2023/03/22 05:18:07;;;;;;;17.60;11.43;;;9.60;99.90;;;;;;5068793;28;20201;-64
2023/03/22 05:20:35;;;;;;;18.95;12.90;;;9.60;99.90;;;;;;5067884;28;20193;-64
2023/03/22 05:23:03;;;;;;;15.65;11.77;;;9.60;99.90;;;;;;5054845;28;20237;-64
2023/03/22 05:25:30;;;;;;;16.02;12.07;;;9.60;99.90;;;;;;5055542;28;20208;-64
2023/03/22 05:28:00;;;;;;;16.80;11.82;;;9.70;99.90;;;;;;5055465;28;20201;-64
2023/03/22 05:30:28;;;;;;;16.40;11.93;;;9.70;99.90;;;;;;5055371;28;20228;-64
2023/03/22 05:32:59;;;;;;;16.77;11.55;;;9.70;99.90;;;;;;5055376;28;20471;-64
2023/03/22 05:35:26;;;;;;;16.00;12.65;;;9.70;99.90;;;;;;5055372;28;20182;-64
2023/03/22 05:37:54;;;;;;;15.88;12.30;;;9.70;99.90;;;;;;5055863;28;20229;-64
2023/03/22 05:40:21;;;;;;;17.77;13.30;;;9.70;99.90;;;;;;5055288;28;20198;-64
2023/03/22 05:42:48;;;;;;;17.27;13.05;;;9.80;99.90;;;;;;5055255;28;20221;-64
2023/03/22 05:45:15;;;;;;;16.75;13.18;;;9.80;99.90;;;;;;5055320;28;20209;-64
2023/03/22 05:47:42;;;;;;;20.40;12.27;;;9.80;99.90;;;;;;5055487;28;20210;-64
2023/03/22 05:50:11;;;;;;;19.77;12.70;;;9.80;99.90;;;;;;5055236;28;20218;-64
2023/03/22 05:52:38;;;;;;;18.20;12.87;;;9.90;99.90;;;;;;5055051;28;20222;-64
2023/03/22 05:55:07;;;;;;;20.65;13.05;;;9.90;99.90;;;;;;5055091;28;20960;-64
2023/03/22 05:57:34;;;;;;;16.25;11.98;;;9.90;99.90;;;;;;5055231;28;20202;-64
2023/03/22 06:00:02;;;;;;;23.63;12.85;;;9.90;99.90;;;;;;5055237;28;20229;-63
2023/03/22 06:02:29;;;;;;;17.77;12.75;;;9.90;99.90;;;;;;5054731;28;20742;-64
2023/03/22 06:04:56;;;;;;;15.80;12.50;;;10.00;99.90;;;;;;5056802;28;20208;-63
2023/03/22 06:07:24;;;;;;;19.10;14.23;;;10.00;99.90;;;;;;5058771;28;20450;-62
2023/03/22 06:09:50;;;;;;;18.23;13.97;;;10.00;99.90;;;;;;5064953;28;20447;-62
2023/03/22 06:12:23;;;;;;;16.40;11.90;;;10.00;99.90;;;;;;5073733;28;20469;-64
2023/03/22 06:14:50;;;;;;;16.10;12.83;;;10.00;99.90;;;;;;5054781;28;20472;-63
2023/03/22 06:17:17;;;;;;;16.58;12.73;;;10.10;99.90;;;;;;5054154;28;20448;-64
2023/03/22 06:19:44;;;;;;;15.13;12.70;;;10.10;99.90;;;;;;5034805;28;20225;-64
2023/03/22 06:22:11;;;;;;;16.60;12.87;;;10.10;99.90;;;;;;5034417;28;21020;-63
2023/03/22 06:24:39;;;;;;;21.60;13.20;;;10.20;99.90;;;;;;5072377;28;20463;-64
2023/03/22 06:27:06;;;;;;;18.00;13.03;;;10.20;99.90;;;;;;5069274;28;20450;-63
2023/03/22 06:29:34;;;;;;;14.67;11.63;;;10.30;99.90;;;;;;5068856;28;20457;-63
2023/03/22 06:32:02;;;;;;;21.50;14.10;;;10.30;99.90;;;;;;5055799;28;20499;-64
2023/03/22 06:34:29;;;;;;;18.73;13.40;;;10.40;99.90;;;;;;5065440;28;20454;-65
2023/03/22 06:36:56;;;;;;;15.03;12.43;;;10.40;99.90;;;;;;5053655;28;20911;-65
2023/03/22 06:39:23;;;;;;;17.37;11.97;;;10.50;99.90;;;;;;5061665;28;20933;-64
2023/03/22 06:41:50;;;;;;;18.13;12.40;;;10.60;99.90;;;;;;5057970;28;20440;-64
2023/03/22 06:44:17;;;;;;;17.07;11.93;;;10.70;99.90;;;;;;5053936;28;20451;-64
2023/03/22 06:46:45;;;;;;;16.83;11.80;;;10.80;99.90;;;;;;5054262;28;20446;-65
2023/03/22 06:49:12;;;;;;;16.43;12.13;;;10.90;99.90;;;;;;5054155;28;20448;-64
2023/03/22 06:51:39;;;;;;;17.13;11.63;;;11.00;99.90;;;;;;5054344;28;20847;-64
2023/03/22 06:54:06;;;;;;;17.20;12.03;;;11.10;99.90;;;;;;5066770;28;20837;-64
2023/03/22 06:56:32;;;;;;;14.13;11.30;;;11.20;99.90;;;;;;5054642;28;20448;-64
2023/03/22 06:58:59;;;;;;;13.73;11.23;;;11.30;99.90;;;;;;5059677;28;20448;-64
2023/03/22 07:01:26;;;;;;;14.90;11.13;;;11.40;99.90;;;;;;5035951;28;20449;-65
2023/03/22 07:03:54;;;;;;;16.10;11.27;;;11.50;99.90;;;;;;5039611;28;20464;-67
2023/03/22 07:06:21;;;;;;;15.73;11.77;;;11.50;99.90;;;;;;5054430;28;20905;-64
2023/03/22 07:08:48;;;;;;;13.77;10.07;;;11.50;99.90;;;;;;5054889;28;20450;-63
2023/03/22 07:11:15;;;;;;;15.73;11.30;;;11.50;99.90;;;;;;5064913;28;20472;-62
2023/03/22 07:13:42;;;;;;;15.37;11.43;;;11.40;99.90;;;;;;5065463;28;20467;-64
2023/03/22 07:16:09;;;;;;;17.10;11.67;;;11.30;99.90;;;;;;5063734;28;20813;-64
2023/03/22 07:18:36;;;;;;;16.33;11.40;;;11.30;99.90;;;;;;5038259;28;20479;-64
2023/03/22 07:21:05;;;;;;;14.20;11.43;;;11.30;99.90;;;;;;5037067;28;20451;-63
2023/03/22 07:23:32;;;;;;;15.10;12.10;;;11.30;99.90;;;;;;5053579;28;20537;-63
2023/03/22 07:26:00;;;;;;;13.87;11.57;;;11.40;99.90;;;;;;5054701;28;20444;-64
2023/03/22 07:28:27;;;;;;;15.57;11.97;;;11.40;99.90;;;;;;5065783;28;20542;-65
2023/03/22 07:31:00;;;;;;;11.40;10.20;;;11.50;99.90;;;;;;5075460;28;20933;-64
2023/03/22 07:33:27;;;;;;;15.47;11.87;;;11.60;99.90;;;;;;5076408;28;20546;-64
2023/03/22 07:35:54;;;;;;;15.50;11.17;;;11.80;99.90;;;;;;5073578;28;20449;-64
2023/03/22 07:38:22;;;;;;;14.33;10.70;;;12.00;99.90;;;;;;5055274;28;20854;-64
2023/03/22 07:40:53;;;;;;;12.47;9.87;;;12.20;99.90;;;;;;5058936;28;20475;-63
2023/03/22 07:43:20;;;;;;;14.27;10.30;;;12.40;99.90;;;;;;5066880;28;20475;-65
2023/03/22 07:45:49;;;;;;;11.67;9.80;;;12.50;99.90;;;;;;5074486;28;20451;-64
2023/03/22 07:48:16;;;;;;;15.40;10.93;;;12.60;99.90;;;;;;5064071;28;20452;-63
2023/03/22 07:50:42;;;;;;;16.00;11.00;;;12.70;99.90;;;;;;5054877;28;20480;-63
2023/03/22 07:53:09;;;;;;;12.03;9.97;;;12.80;99.90;;;;;;5070659;28;20463;-64
2023/03/22 07:55:38;;;;;;;16.30;12.13;;;12.90;99.90;;;;;;5042092;28;20514;-64
2023/03/22 07:58:05;;;;;;;13.57;9.57;;;13.00;99.90;;;;;;5057723;28;20447;-64
2023/03/22 08:00:32;;;;;;;13.70;10.00;;;13.10;99.90;;;;;;5043005;28;20954;-64
2023/03/22 08:02:59;;;;;;;12.10;9.13;;;13.40;99.90;;;;;;5039332;28;20460;-64
2023/03/22 08:05:26;;;;;;;15.23;10.80;;;13.70;99.90;;;;;;5056761;28;20435;-64
2023/03/22 08:07:55;;;;;;;10.63;8.33;;;14.10;99.90;;;;;;5073090;28;20454;-64
2023/03/22 08:10:22;;;;;;;11.73;8.47;;;14.40;99.90;;;;;;5066754;28;20465;-64
2023/03/22 08:12:51;;;;;;;13.63;9.33;;;14.60;99.90;;;;;;5052973;28;20468;-63
2023/03/22 08:15:17;;;;;;;13.60;8.70;;;14.60;99.90;;;;;;5057942;28;20448;-63
2023/03/22 08:17:45;;;;;;;10.00;8.40;;;14.60;99.90;;;;;;5073203;28;20567;-63
2023/03/22 08:20:12;;;;;;;11.40;8.37;;;14.50;99.90;;;;;;5069191;28;20444;-62
2023/03/22 08:22:39;;;;;;;11.00;8.70;;;14.50;99.90;;;;;;5055055;28;20479;-62
2023/03/22 08:25:07;;;;;;;12.60;7.70;;;14.40;99.90;;;;;;5072752;28;20543;-62
2023/03/22 08:27:34;;;;;;;10.53;6.50;;;14.30;99.90;;;;;;5073064;28;20463;-64
2023/03/22 08:30:04;;;;;;;9.80;7.17;;;14.30;99.90;;;;;;5073855;28;20450;-63
2023/03/22 08:32:32;;;;;;;7.97;6.50;;;14.30;99.90;;;;;;5073281;28;20889;-64
2023/03/22 08:34:59;;;;;;;10.03;6.20;;;14.30;99.90;;;;;;5074571;28;20949;-64
2023/03/22 08:37:26;;;;;;;11.00;6.80;;;14.30;99.90;;;;;;5072917;28;20446;-64
2023/03/22 08:39:52;;;;;;;7.50;5.70;;;14.20;99.90;;;;;;5069772;28;20448;-64
2023/03/22 08:42:19;;;;;;;9.03;5.30;;;14.30;99.90;;;;;;5034690;28;20484;-63
2023/03/22 08:44:46;;;;;;;7.50;5.67;;;14.30;99.90;;;;;;5034266;28;20480;-62
2023/03/22 08:47:15;;;;;;;7.23;6.00;;;14.40;99.50;;;;;;5034091;28;20448;-62
2023/03/22 08:49:42;;;;;;;8.70;5.57;;;14.40;99.60;;;;;;5033466;28;20459;-61
2023/03/22 08:52:09;;;;;;;12.70;7.70;;;14.40;98.70;;;;;;5033502;28;20484;-62
2023/03/22 08:54:37;;;;;;;10.20;5.23;;;14.40;98.30;;;;;;5032345;28;20830;-62
2023/03/22 08:57:07;;;;;;;9.20;5.67;;;14.30;97.70;;;;;;5034504;28;20950;-63
2023/03/22 08:59:33;;;;;;;6.70;4.87;;;14.30;97.30;;;;;;5038347;28;20452;-63
2023/03/22 09:02:00;;;;;;;7.80;6.20;;;14.30;97.30;;;;;;5036408;28;20447;-62
2023/03/22 09:04:28;;;;;;;8.13;5.97;;;14.40;97.20;;;;;;5036615;28;20825;-65
2023/03/22 09:06:55;;;;;;;8.23;6.60;;;14.40;96.80;;;;;;5037617;28;20446;-63
2023/03/22 09:09:22;;;;;;;8.23;6.43;;;14.50;96.70;;;;;;5036234;28;20455;-63
2023/03/22 09:11:49;;;;;;;9.47;5.90;;;14.60;96.10;;;;;;5036136;28;20481;-62
2023/03/22 09:14:16;;;;;;;12.73;6.30;;;14.60;96.10;;;;;;5036776;28;20444;-61
2023/03/22 09:16:42;;;;;;;7.97;5.47;;;14.70;96.00;;;;;;5036704;28;20449;-61
2023/03/22 09:19:09;;;;;;;8.60;6.27;;;14.80;95.60;;;;;;5036279;28;20516;-61
2023/03/22 09:21:37;;;;;;;9.13;6.37;;;14.90;95.10;;;;;;5036186;28;20532;-61
2023/03/22 09:24:05;;;;;;;6.63;5.53;;;14.90;94.90;;;;;;5035914;28;20472;-61
2023/03/22 09:26:32;;;;;;;7.10;5.57;;;15.00;94.80;;;;;;5035903;28;20452;-61
2023/03/22 09:28:59;;;;;;;8.10;6.47;;;15.10;94.70;;;;;;5036093;28;20449;-61
2023/03/22 09:31:25;;;;;;;8.53;6.17;;;15.10;94.60;;;;;;5035937;28;20488;-61
2023/03/22 09:33:53;;;;;;;12.53;6.37;;;15.20;94.30;;;;;;5035656;28;20544;-61
2023/03/22 09:36:19;;;;;;;10.90;6.40;;;15.10;93.80;;;;;;5036282;28;20451;-60
2023/03/22 09:38:48;;;;;;;10.20;5.50;;;15.30;94.20;;;;;;5035808;28;20449;-60
2023/03/22 09:41:20;;;;;;;7.67;6.70;;;15.50;93.50;;;;;;5035422;28;20480;-61
2023/03/22 09:43:51;;;;;;;7.83;5.53;;;15.60;92.70;;;;;;5035187;28;20476;-60
2023/03/22 09:46:22;;;;;;;7.13;5.47;;;15.70;92.40;;;;;;5035308;28;20434;-60
2023/03/22 09:48:50;;;;;;;9.83;6.00;;;15.90;91.50;;;;;;5035092;28;20457;-61
2023/03/22 09:51:29;;;;;;;5.93;5.33;;;15.90;90.70;;;;;;5035164;28;20826;-62
2023/03/22 09:53:58;;;;;;;6.67;5.20;;;16.00;90.20;;;;;;5035173;28;20522;-61
2023/03/22 09:56:29;;;;;;;6.97;4.60;;;16.00;87.50;;;;;;5035336;28;20838;-60
2023/03/22 09:59:03;;;;;;;8.43;4.67;;;16.00;87.20;;;;;;5035633;28;20441;-62
2023/03/22 10:01:39;;;;;;;8.40;3.90;;;16.10;86.70;;;;;;5035802;28;20421;-63
2023/03/22 10:04:33;;;;;;;6.97;3.90;;;16.20;84.70;;;;;;5035827;28;20490;-61
2023/03/22 10:07:07;;;;;;;4.23;3.60;;;16.30;82.40;;;;;;5035286;28;20426;-61
2023/03/22 10:09:43;;;;;;;4.43;3.67;;;16.30;80.90;;;;;;5036085;28;20446;-62
2023/03/22 10:12:15;;;;;;;6.77;3.43;;;16.30;80.40;;;;;;5035077;28;20480;-61
2023/03/22 10:14:48;;;;;;;5.97;3.37;;;16.30;79.00;;;;;;5035480;28;20495;-62
2023/03/22 10:17:18;;;;;;;4.37;3.40;;;16.30;78.60;;;;;;5035167;28;20434;-61
2023/03/22 10:19:51;;;;;;;4.37;3.70;;;16.30;78.30;;;;;;5035234;28;20835;-61
2023/03/22 10:22:23;;;;;;;5.23;4.73;;;16.30;77.00;;;;;;5035296;28;20824;-61
2023/03/22 10:24:53;;;;;;;5.70;4.03;;;16.40;76.10;;;;;;5035711;28;20429;-62
2023/03/22 10:27:21;;;;;;;6.10;3.23;;;16.60;75.00;;;;;;5035487;28;20459;-60
2023/03/22 10:29:53;;;;;;;4.70;2.97;;;16.70;74.00;;;;;;5035219;28;20809;-61
2023/03/22 10:32:26;;;;;;;4.07;2.87;;;16.80;72.70;;;;;;5034922;28;20485;-62
2023/03/22 10:34:54;;;;;;;4.37;3.23;;;16.90;71.30;;;;;;5034726;28;20429;-61
2023/03/22 10:37:24;;;;;;;4.83;2.80;;;16.80;69.90;;;;;;5034840;28;20449;-61
2023/03/22 10:39:55;;;;;;;3.37;3.07;;;16.80;69.90;;;;;;5034292;28;20442;-61
2023/03/22 10:42:25;;;;;;;3.70;2.63;;;16.90;70.00;;;;;;5034437;28;20468;-61
2023/03/22 10:44:55;;;;;;;5.20;3.07;;;17.20;69.60;;;;;;5035121;28;20480;-63
2023/03/22 10:47:31;;;;;;;5.50;2.70;;;17.40;68.00;;;;;;5033626;28;20445;-62
2023/03/22 10:50:02;;;;;;;6.23;2.77;;;17.60;66.70;;;;;;5034998;28;20449;-61
2023/03/22 10:52:39;;;;;;;4.97;2.67;;;17.80;65.60;;;;;;5034127;28;21026;-61
2023/03/22 10:55:13;;;;;;;5.87;3.00;;;17.90;64.40;;;;;;5034385;28;20429;-61
2023/03/22 10:57:41;;;;;;;4.13;2.60;;;18.00;64.20;;;;;;5034498;28;20939;-61
2023/03/22 11:00:11;;;;;;;4.80;2.83;;;18.00;62.50;;;;;;5034476;28;20445;-60
2023/03/22 11:02:46;;;;;;;2.70;2.33;;;17.90;62.50;;;;;;5034056;28;20461;-61
2023/03/22 11:05:23;;;;;;;3.37;3.07;;;17.70;62.70;;;;;;5034089;28;20437;-62
2023/03/22 11:07:50;;;;;;;6.20;2.47;;;17.50;62.90;;;;;;5033913;28;20429;-62
2023/03/22 11:10:27;;;;;;;4.83;3.17;;;17.40;62.50;;;;;;5033653;28;20445;-62
2023/03/22 11:13:10;;;;;;;3.30;2.70;;;17.40;63.00;;;;;;5034104;28;20622;-61
2023/03/22 11:15:40;;;;;;;4.43;2.80;;;17.40;63.10;;;;;;5033491;28;20931;-62
2023/03/22 11:18:11;;;;;;;4.40;3.03;;;17.40;62.60;;;;;;5033537;28;20932;-61
2023/03/22 11:20:40;;;;;;;5.37;2.80;;;17.40;62.30;;;;;;5033336;28;20436;-61
2023/03/22 11:23:11;;;;;;;5.83;2.90;;;17.40;62.70;;;;;;5033641;28;20878;-61
2023/03/22 11:25:46;;;;;;;6.83;2.40;;;17.50;62.70;;;;;;5034026;28;20429;-61
2023/03/22 11:28:17;;;;;;;6.57;2.83;;;17.50;61.90;;;;;;5033667;28;20520;-60
2023/03/22 11:30:59;;;;;;;4.20;2.80;;;17.60;61.80;;;;;;5033409;28;20942;-61
2023/03/22 11:33:26;;;;;;;4.90;2.70;;;17.50;61.70;;;;;;5033167;28;20485;-61
2023/03/22 11:35:56;;;;;;;4.10;2.50;;;17.50;61.30;;;;;;5033322;28;20962;-61
2023/03/22 11:38:28;;;;;;;6.77;3.10;;;17.50;61.30;;;;;;5033432;28;20468;-62
2023/03/22 11:41:00;;;;;;;3.67;2.17;;;17.50;61.60;;;;;;5034125;28;20441;-62
2023/03/22 11:43:32;;;;;;;2.80;2.40;;;17.50;61.00;;;;;;5033075;28;20955;-62
2023/03/22 11:46:01;;;;;;;4.03;2.20;;;17.50;60.00;;;;;;5033752;28;20891;-62
2023/03/22 11:48:31;;;;;;;3.53;2.13;;;17.40;59.00;;;;;;5034390;28;20469;-62
2023/03/22 11:51:05;;;;;;;4.90;1.90;;;17.40;58.80;;;;;;5033998;28;20935;-61
2023/03/22 11:53:34;;;;;;;2.87;1.73;;;17.40;58.10;;;;;;5033394;28;20488;-62
2023/03/22 11:56:06;;;;;;;3.37;1.90;;;17.40;58.00;;;;;;5034790;28;20818;-62
2023/03/22 11:58:47;;;;;;;2.20;2.00;;;17.40;58.00;;;;;;5034586;28;20782;-62
2023/03/22 12:01:20;;;;;;;4.27;2.00;;;17.40;57.70;;;;;;5034958;28;20433;-62
2023/03/22 12:03:51;;;;;;;4.63;1.90;;;17.40;57.50;;;;;;5034023;28;20464;-62
2023/03/22 12:06:24;;;;;;;3.00;1.77;;;17.30;57.10;;;;;;5033661;28;20801;-61
2023/03/22 12:08:55;;;;;;;4.30;1.90;;;17.30;56.90;;;;;;5033761;28;20443;-62
2023/03/22 12:11:28;;;;;;;3.17;1.70;;;17.30;56.80;;;;;;5034448;28;20425;-62
2023/03/22 12:13:58;;;;;;;4.10;2.17;;;17.30;56.90;;;;;;5033673;28;20489;-62
2023/03/22 12:16:29;;;;;;;3.60;2.20;;;17.30;56.40;;;;;;5034320;28;20437;-62
2023/03/22 12:19:04;;;;;;;4.40;1.93;;;17.30;56.20;;;;;;5034360;28;20891;-61
2023/03/22 12:21:32;;;;;;;4.33;1.80;;;17.30;56.20;;;;;;5033847;28;20440;-63
2023/03/22 12:24:02;;;;;;;3.40;1.80;;;17.50;56.30;;;;;;5033457;28;20476;-62
2023/03/22 12:26:32;;;;;;;3.70;2.10;;;17.60;55.80;;;;;;5033700;28;20515;-62
2023/03/22 12:29:02;;;;;;;3.50;2.17;;;17.60;55.80;;;;;;5032822;28;20482;-62
2023/03/22 12:31:33;;;;;;;3.60;2.30;;;17.70;55.60;;;;;;5033733;28;20436;-61
2023/03/22 12:34:04;;;;;;;2.57;1.73;;;17.60;55.50;;;;;;5037010;28;20452;-60
2023/03/22 12:36:37;;;;;;;7.13;3.20;;;17.50;55.50;;;;;;5036227;28;20461;-62
2023/03/22 12:39:06;;;;;;;3.80;2.10;;;17.40;55.80;;;;;;5036791;28;20425;-62
2023/03/22 12:41:39;;;;;;;3.20;1.83;;;17.30;55.80;;;;;;5036854;28;20891;-61
2023/03/22 12:44:13;;;;;;;6.50;2.07;;;17.30;55.90;;;;;;5037169;28;20465;-61
2023/03/22 12:46:48;;;;;;;3.90;1.87;;;17.30;56.00;;;;;;5037260;28;20907;-62
2023/03/22 12:49:23;;;;;;;4.73;2.43;;;17.20;56.10;;;;;;5036917;28;20448;-62
2023/03/22 12:51:52;;;;;;;3.43;2.43;;;17.10;56.20;;;;;;5036503;28;20425;-61
2023/03/22 12:54:22;;;;;;;4.10;1.90;;;17.10;56.50;;;;;;5036758;28;20972;-61
2023/03/22 12:56:51;;;;;;;3.03;1.90;;;17.10;56.60;;;;;;5037667;28;20445;-61
2023/03/22 12:59:23;;;;;;;3.20;1.90;;;17.10;56.40;;;;;;5037187;28;20441;-63